Time;durP1;ratioP1;P1;durP2;ratioP2;P2;SDS_P1;SDS_P2;PMS_P1;PMS_P2;Temp;Humidity;BMP_temperature;BMP_pressure;BME280_temperature;BME280_humidity;BME280_pressure;Samples;Min_cycle;Max_cycle;Signal;HPM_P1;HPM_P2
2022/12/02 00:02:00;;;;;;;7.38;5.72;;;16.00;52.30;;;;;;5105720;27;45353;-71
2022/12/02 00:04:28;;;;;;;7.20;5.50;;;16.00;52.20;;;;;;5105570;27;46612;-71
2022/12/02 00:06:56;;;;;;;7.53;5.75;;;16.00;52.10;;;;;;5108483;27;45218;-71
2022/12/02 00:09:26;;;;;;;7.30;5.32;;;16.00;52.00;;;;;;5109126;27;45307;-70
2022/12/02 00:11:54;;;;;;;7.80;5.57;;;16.00;52.00;;;;;;5109611;27;45178;-71
2022/12/02 00:14:22;;;;;;;7.80;5.80;;;16.10;52.00;;;;;;5108992;27;47042;-70
2022/12/02 00:16:51;;;;;;;7.72;5.57;;;16.10;52.00;;;;;;5109052;27;45323;-71
2022/12/02 00:19:18;;;;;;;7.07;5.35;;;16.10;52.00;;;;;;5109039;27;45267;-71
2022/12/02 00:21:45;;;;;;;9.35;5.63;;;16.10;52.00;;;;;;5109084;27;45255;-71
2022/12/02 00:24:12;;;;;;;7.03;5.15;;;16.00;52.00;;;;;;5108618;27;46393;-70
2022/12/02 00:26:39;;;;;;;8.35;5.72;;;16.00;52.00;;;;;;5108916;27;45306;-71
2022/12/02 00:29:08;;;;;;;6.60;5.22;;;16.00;52.00;;;;;;5109273;27;45171;-71
2022/12/02 00:31:35;;;;;;;7.70;5.78;;;16.00;52.00;;;;;;5109111;27;45249;-70
2022/12/02 00:34:04;;;;;;;8.68;5.57;;;16.00;52.00;;;;;;5108648;27;46678;-71
2022/12/02 00:36:31;;;;;;;7.65;5.18;;;16.00;52.00;;;;;;5108935;27;45306;-71
2022/12/02 00:38:58;;;;;;;6.68;5.13;;;16.00;52.00;;;;;;5108870;27;45263;-71
2022/12/02 00:41:25;;;;;;;6.60;5.85;;;16.00;52.00;;;;;;5108960;27;45232;-71
2022/12/02 00:46:36;;;;;;;7.32;5.43;;;16.00;52.10;;;;;;5103823;27;45453;-71
2022/12/02 00:49:06;;;;;;;8.73;5.50;;;16.00;52.10;;;;;;5108747;27;45327;-71
2022/12/02 00:51:34;;;;;;;7.55;5.47;;;15.90;52.20;;;;;;5096129;27;45247;-71
2022/12/02 00:54:01;;;;;;;6.88;5.35;;;15.90;52.10;;;;;;5106913;27;46389;-71
2022/12/02 00:56:29;;;;;;;7.55;5.50;;;15.90;52.10;;;;;;5107196;27;45319;-71
2022/12/02 00:58:56;;;;;;;9.20;5.18;;;15.90;52.80;;;;;;5108163;27;45298;-71
2022/12/02 01:01:25;;;;;;;7.60;5.20;;;15.90;52.20;;;;;;5108539;27;45242;-70
2022/12/02 01:03:54;;;;;;;6.13;5.07;;;15.90;52.20;;;;;;5107871;27;46218;-71
2022/12/02 01:06:22;;;;;;;7.55;4.97;;;15.80;52.20;;;;;;5108250;27;44760;-71
2022/12/02 01:08:51;;;;;;;5.97;5.07;;;15.80;52.30;;;;;;5108223;27;45243;-71
2022/12/02 01:11:19;;;;;;;6.95;5.20;;;15.80;52.30;;;;;;5108742;27;45347;-71
2022/12/02 01:13:46;;;;;;;8.25;5.07;;;15.80;52.40;;;;;;5107967;27;45353;-71
2022/12/02 01:16:13;;;;;;;6.88;4.97;;;15.80;52.40;;;;;;5107715;27;45277;-72
2022/12/02 01:18:40;;;;;;;6.18;4.93;;;15.80;52.50;;;;;;5108223;27;45223;-71
2022/12/02 01:21:07;;;;;;;8.02;5.47;;;15.80;52.50;;;;;;5108148;27;45606;-71
2022/12/02 01:23:36;;;;;;;7.13;5.22;;;15.70;52.40;;;;;;5107858;27;46749;-71
2022/12/02 01:26:04;;;;;;;7.53;5.32;;;15.70;52.40;;;;;;5106115;27;45280;-72
2022/12/02 01:28:34;;;;;;;7.07;5.10;;;15.70;52.50;;;;;;5107968;27;45267;-70
2022/12/02 01:31:00;;;;;;;7.22;5.10;;;15.70;52.40;;;;;;5108414;27;45410;-71
2022/12/02 01:33:27;;;;;;;6.20;5.00;;;15.70;52.60;;;;;;5107563;27;45770;-71
2022/12/02 01:35:54;;;;;;;6.32;4.75;;;15.60;52.60;;;;;;5107879;27;45270;-70
2022/12/02 01:38:21;;;;;;;9.85;4.97;;;15.60;52.60;;;;;;5106960;27;45280;-71
2022/12/02 01:40:51;;;;;;;6.85;5.13;;;15.60;52.70;;;;;;5107828;27;45237;-71
2022/12/02 01:43:18;;;;;;;7.43;5.20;;;15.60;52.70;;;;;;5107474;27;46355;-71
2022/12/02 01:45:44;;;;;;;9.07;4.80;;;15.60;52.80;;;;;;5105894;27;45284;-73
2022/12/02 01:48:11;;;;;;;7.35;5.10;;;15.60;52.80;;;;;;5102478;27;45256;-71
2022/12/02 01:50:39;;;;;;;7.32;5.40;;;15.50;52.80;;;;;;5107693;27;45434;-70
2022/12/02 01:53:06;;;;;;;5.63;4.90;;;15.60;52.80;;;;;;5107195;27;45447;-71
2022/12/02 01:55:33;;;;;;;7.25;5.30;;;15.70;52.70;;;;;;5107272;27;45261;-71
2022/12/02 01:58:01;;;;;;;8.70;4.82;;;15.70;52.50;;;;;;5107854;27;45272;-70
2022/12/02 02:00:29;;;;;;;6.88;4.80;;;15.70;52.50;;;;;;5107875;27;45268;-71
2022/12/02 02:02:56;;;;;;;6.63;4.85;;;15.80;52.40;;;;;;5107269;27;45536;-71
2022/12/02 02:05:24;;;;;;;7.78;5.10;;;15.80;52.20;;;;;;5107188;27;45205;-70
2022/12/02 02:07:55;;;;;;;6.90;5.15;;;15.90;52.20;;;;;;5107324;27;45347;-70
2022/12/02 02:10:24;;;;;;;6.85;4.78;;;15.90;52.00;;;;;;5107700;27;45205;-71
2022/12/02 02:12:51;;;;;;;7.50;4.63;;;16.00;51.90;;;;;;5107002;27;46672;-70
2022/12/02 02:15:20;;;;;;;7.70;5.50;;;16.00;51.90;;;;;;5106945;27;45426;-71
2022/12/02 02:17:48;;;;;;;8.13;5.18;;;16.00;51.80;;;;;;5107356;27;45339;-71
2022/12/02 02:20:17;;;;;;;6.85;4.88;;;16.00;51.80;;;;;;5107291;27;45196;-71
2022/12/02 02:22:46;;;;;;;7.68;5.45;;;16.00;51.80;;;;;;5107191;27;45664;-71
2022/12/02 02:25:16;;;;;;;5.97;4.88;;;16.00;51.80;;;;;;5088877;27;45169;-70
2022/12/02 02:27:44;;;;;;;7.45;5.10;;;16.00;51.80;;;;;;5106084;27;45247;-71
2022/12/02 02:30:12;;;;;;;8.18;4.90;;;16.00;51.80;;;;;;5056518;28;45345;-71
2022/12/02 02:32:39;;;;;;;8.27;5.90;;;16.00;51.80;;;;;;5065737;28;45607;-70
2022/12/02 02:35:06;;;;;;;7.47;5.35;;;16.00;51.80;;;;;;5065492;28;45261;-71
2022/12/02 02:37:33;;;;;;;7.47;5.28;;;16.00;51.90;;;;;;5065937;28;45349;-71
2022/12/02 02:40:00;;;;;;;7.85;4.90;;;16.00;51.90;;;;;;5066045;28;45400;-70
2022/12/02 02:42:29;;;;;;;6.45;4.97;;;15.90;51.90;;;;;;5065520;28;46836;-71
2022/12/02 02:44:56;;;;;;;8.05;4.97;;;15.90;52.00;;;;;;5048009;28;46253;-71
2022/12/02 02:47:24;;;;;;;5.93;4.78;;;15.90;52.00;;;;;;5084590;27;45545;-71
2022/12/02 02:49:50;;;;;;;8.00;5.45;;;15.90;52.10;;;;;;5068538;28;45296;-71
2022/12/02 02:52:18;;;;;;;5.85;4.72;;;15.90;52.10;;;;;;5085746;28;47725;-71
2022/12/02 02:54:45;;;;;;;7.03;5.22;;;15.90;52.10;;;;;;5086007;28;45189;-71
2022/12/02 02:57:12;;;;;;;6.60;5.00;;;15.90;52.10;;;;;;5086017;28;45184;-71
2022/12/02 02:59:40;;;;;;;6.82;5.38;;;15.80;52.10;;;;;;5086433;28;45489;-71
2022/12/02 03:02:09;;;;;;;6.72;5.05;;;15.80;52.10;;;;;;5085811;28;45442;-71
2022/12/02 03:04:36;;;;;;;7.22;5.55;;;15.80;52.20;;;;;;5085905;28;45321;-71
2022/12/02 03:07:04;;;;;;;6.13;4.75;;;15.80;52.20;;;;;;5085732;28;45206;-71
2022/12/02 03:09:31;;;;;;;5.95;4.75;;;15.80;52.80;;;;;;5086062;28;45295;-71
2022/12/02 03:11:58;;;;;;;5.80;4.60;;;15.80;52.20;;;;;;5085572;28;46403;-70
2022/12/02 03:14:25;;;;;;;6.70;5.03;;;15.80;52.20;;;;;;5085399;28;45335;-70
2022/12/02 03:16:54;;;;;;;6.72;5.07;;;15.80;52.20;;;;;;5086229;28;45217;-71
2022/12/02 03:19:21;;;;;;;6.22;5.10;;;15.80;52.90;;;;;;5085737;28;45409;-71
2022/12/02 03:21:48;;;;;;;6.28;5.00;;;15.80;52.30;;;;;;5085451;28;46821;-71
2022/12/02 03:24:15;;;;;;;6.40;4.32;;;15.70;52.30;;;;;;5085561;28;45252;-71
2022/12/02 03:26:43;;;;;;;6.05;4.80;;;15.70;52.40;;;;;;5085535;28;45220;-70
2022/12/02 03:29:11;;;;;;;6.97;5.00;;;15.70;52.40;;;;;;5086186;28;45293;-71
2022/12/02 03:31:37;;;;;;;7.40;5.10;;;15.70;52.40;;;;;;5085411;28;46559;-70
2022/12/02 03:34:06;;;;;;;7.40;4.75;;;15.70;52.50;;;;;;5085175;28;45329;-71
2022/12/02 03:36:33;;;;;;;6.90;4.75;;;15.60;52.50;;;;;;5085445;28;45412;-71
2022/12/02 03:39:00;;;;;;;7.00;4.47;;;15.60;52.60;;;;;;5086075;27;45437;-71
2022/12/02 03:41:27;;;;;;;6.45;4.97;;;15.60;52.70;;;;;;5088504;28;47131;-71
2022/12/02 03:43:55;;;;;;;8.60;5.15;;;15.60;52.70;;;;;;5088788;28;45399;-71
2022/12/02 03:46:22;;;;;;;6.45;4.95;;;15.50;52.70;;;;;;5093983;27;45244;-71
2022/12/02 03:48:50;;;;;;;6.30;4.30;;;15.50;52.70;;;;;;5089044;28;45352;-71
2022/12/02 03:51:19;;;;;;;7.32;4.45;;;15.50;52.80;;;;;;5088488;28;46931;-71
2022/12/02 03:53:47;;;;;;;6.75;4.97;;;15.50;52.90;;;;;;5088729;28;45210;-70
2022/12/02 03:56:14;;;;;;;8.35;4.65;;;15.60;52.80;;;;;;5088810;28;45273;-70
2022/12/02 03:58:45;;;;;;;6.22;4.72;;;15.70;52.70;;;;;;5089091;28;45328;-71
2022/12/02 04:01:12;;;;;;;7.80;4.85;;;15.70;52.40;;;;;;5088302;28;46312;-70
2022/12/02 04:03:39;;;;;;;6.65;4.43;;;15.80;52.40;;;;;;5088693;28;45332;-71
2022/12/02 04:06:06;;;;;;;7.03;4.88;;;15.80;52.20;;;;;;5088559;28;45306;-71
2022/12/02 04:08:35;;;;;;;6.18;4.65;;;15.80;52.20;;;;;;5088729;28;45419;-71
2022/12/02 04:11:02;;;;;;;7.15;4.80;;;15.80;52.10;;;;;;5088209;28;45375;-71
2022/12/02 04:13:29;;;;;;;8.65;5.28;;;15.90;52.20;;;;;;5088366;28;45311;-71
2022/12/02 04:15:56;;;;;;;8.40;5.20;;;15.90;52.20;;;;;;5088551;28;45249;-71
2022/12/02 04:18:24;;;;;;;6.63;4.80;;;15.90;52.10;;;;;;5088629;28;45470;-71
2022/12/02 04:20:51;;;;;;;6.07;5.03;;;15.90;52.10;;;;;;5070027;28;47185;-71
2022/12/02 04:23:18;;;;;;;5.65;4.35;;;15.90;52.10;;;;;;5088269;28;45256;-71
2022/12/02 04:25:46;;;;;;;6.80;4.80;;;15.90;52.10;;;;;;5088341;28;45344;-71
2022/12/02 04:28:14;;;;;;;7.95;5.30;;;15.90;52.10;;;;;;5088542;28;45245;-71
2022/12/02 04:30:41;;;;;;;6.50;5.03;;;15.90;52.10;;;;;;5070213;28;45475;-70
2022/12/02 04:33:08;;;;;;;8.00;5.07;;;15.90;52.10;;;;;;5088290;28;45214;-71
2022/12/02 04:35:35;;;;;;;6.07;4.55;;;15.90;52.10;;;;;;5088117;28;45185;-70
2022/12/02 04:38:02;;;;;;;7.20;5.38;;;15.90;52.10;;;;;;5088517;28;45267;-70
2022/12/02 04:40:29;;;;;;;7.38;5.13;;;15.80;52.10;;;;;;5087948;28;46860;-71
2022/12/02 04:42:57;;;;;;;6.55;4.82;;;15.80;52.10;;;;;;5087444;28;45244;-71
2022/12/02 04:45:24;;;;;;;6.70;4.95;;;15.80;52.20;;;;;;5088266;28;45353;-71
2022/12/02 04:47:51;;;;;;;7.20;5.18;;;15.80;52.20;;;;;;5100840;27;45598;-71
2022/12/02 04:50:19;;;;;;;8.30;5.55;;;15.80;52.20;;;;;;5107807;27;47307;-71
2022/12/02 04:52:46;;;;;;;9.10;5.53;;;15.80;52.20;;;;;;5107339;27;45240;-71
2022/12/02 04:55:13;;;;;;;7.18;5.40;;;15.80;52.30;;;;;;5108187;27;45304;-70
2022/12/02 04:57:41;;;;;;;6.82;5.43;;;15.80;52.40;;;;;;5108925;27;45391;-71
2022/12/02 05:00:11;;;;;;;8.45;5.60;;;15.70;52.30;;;;;;5108323;27;45512;-71
2022/12/02 05:02:38;;;;;;;7.95;5.57;;;15.70;52.40;;;;;;5108285;27;45181;-71
2022/12/02 05:05:06;;;;;;;8.00;4.97;;;15.70;52.40;;;;;;5108445;27;45434;-71
2022/12/02 05:07:33;;;;;;;6.88;5.15;;;15.70;52.40;;;;;;5108469;27;45461;-71
2022/12/02 05:10:00;;;;;;;9.35;5.65;;;15.70;52.40;;;;;;5107877;27;45815;-71
2022/12/02 05:12:27;;;;;;;7.80;5.30;;;15.70;52.40;;;;;;5108006;27;45324;-71
2022/12/02 05:14:54;;;;;;;8.10;5.35;;;15.70;52.40;;;;;;5108039;27;45334;-71
2022/12/02 05:17:22;;;;;;;6.80;4.85;;;15.70;52.40;;;;;;5108751;27;45268;-71
2022/12/02 05:19:49;;;;;;;7.13;5.43;;;15.70;52.50;;;;;;5107862;27;46669;-71
2022/12/02 05:22:16;;;;;;;7.50;5.43;;;15.70;52.50;;;;;;5107941;27;45284;-71
2022/12/02 05:24:43;;;;;;;6.63;4.78;;;15.60;52.50;;;;;;5108053;27;45323;-71
2022/12/02 05:27:11;;;;;;;7.90;5.15;;;15.60;52.60;;;;;;5108170;27;45549;-70
2022/12/02 05:29:38;;;;;;;9.57;5.53;;;15.60;52.60;;;;;;5107754;27;47543;-71
2022/12/02 05:32:06;;;;;;;7.20;4.93;;;15.60;52.60;;;;;;5107608;27;45249;-71
2022/12/02 05:34:35;;;;;;;6.40;4.53;;;15.60;52.70;;;;;;5107693;27;45246;-71
2022/12/02 05:37:02;;;;;;;8.25;5.15;;;15.60;52.70;;;;;;5107877;27;45286;-71
2022/12/02 05:39:29;;;;;;;8.30;5.60;;;15.50;52.70;;;;;;5107790;27;46991;-71
2022/12/02 05:41:58;;;;;;;6.93;5.20;;;15.50;52.80;;;;;;5107437;27;45235;-71
2022/12/02 05:44:26;;;;;;;6.60;5.05;;;15.50;52.90;;;;;;5107703;27;45328;-71
2022/12/02 05:46:53;;;;;;;6.82;5.13;;;15.50;52.90;;;;;;5102589;27;45577;-71
2022/12/02 05:49:21;;;;;;;7.18;4.93;;;15.50;52.90;;;;;;5107492;27;45838;-71
2022/12/02 05:51:51;;;;;;;7.45;4.95;;;15.60;52.80;;;;;;5107357;27;45217;-71
2022/12/02 05:54:19;;;;;;;8.07;5.82;;;15.60;52.70;;;;;;5107516;27;45348;-71
2022/12/02 05:56:46;;;;;;;9.52;6.00;;;15.70;52.50;;;;;;5107656;27;45656;-72
2022/12/02 05:59:15;;;;;;;8.63;5.53;;;15.70;53.00;;;;;;5107650;27;45620;-71
2022/12/02 06:01:42;;;;;;;8.10;6.07;;;15.80;52.30;;;;;;5106931;27;45386;-71
2022/12/02 06:04:14;;;;;;;7.35;5.22;;;15.80;52.20;;;;;;5107477;27;45374;-70
2022/12/02 06:06:41;;;;;;;8.52;5.35;;;15.80;52.20;;;;;;5107510;27;45362;-71
2022/12/02 06:09:14;;;;;;;8.27;5.65;;;15.80;52.10;;;;;;5106974;27;45965;-71
2022/12/02 06:11:41;;;;;;;8.63;4.85;;;15.80;52.10;;;;;;5107250;27;45328;-71
2022/12/02 06:14:13;;;;;;;7.70;5.55;;;15.80;52.10;;;;;;5107019;27;45267;-71
2022/12/02 06:16:40;;;;;;;7.85;5.72;;;15.80;52.00;;;;;;5089484;27;45659;-71
2022/12/02 06:19:11;;;;;;;8.98;5.90;;;15.80;52.00;;;;;;5107107;27;45307;-71
2022/12/02 06:21:38;;;;;;;8.68;5.90;;;15.80;52.00;;;;;;5107023;27;45267;-72
2022/12/02 06:24:06;;;;;;;8.18;5.05;;;15.80;52.10;;;;;;5107191;27;45330;-71
2022/12/02 06:26:34;;;;;;;9.63;5.38;;;15.80;52.10;;;;;;5107016;27;45284;-72
2022/12/02 06:29:02;;;;;;;8.75;5.45;;;15.80;52.20;;;;;;5106530;27;45456;-71
2022/12/02 06:31:32;;;;;;;8.38;5.35;;;15.80;52.20;;;;;;5106906;27;45248;-71
2022/12/02 06:34:00;;;;;;;9.40;5.60;;;15.80;52.20;;;;;;5088792;27;45434;-72
2022/12/02 06:36:29;;;;;;;8.23;5.75;;;15.80;52.30;;;;;;5106958;27;45239;-71
2022/12/02 06:38:57;;;;;;;8.35;5.22;;;15.80;52.20;;;;;;5106892;27;45737;-71
2022/12/02 06:41:25;;;;;;;8.20;5.03;;;15.80;52.20;;;;;;5106997;27;45309;-71
2022/12/02 06:46:41;;;;;;;7.70;5.00;;;15.80;52.40;;;;;;5086966;27;45287;-71
2022/12/02 06:49:14;;;;;;;7.25;4.85;;;15.80;52.30;;;;;;5106625;27;45337;-71
2022/12/02 06:51:41;;;;;;;9.43;5.47;;;15.70;52.30;;;;;;5106982;27;45348;-71
2022/12/02 06:54:11;;;;;;;9.77;5.32;;;15.70;52.30;;;;;;5107014;27;45459;-71
2022/12/02 06:56:38;;;;;;;7.63;5.53;;;15.70;52.40;;;;;;5107074;27;45546;-71
2022/12/02 06:59:08;;;;;;;9.18;5.40;;;15.70;52.40;;;;;;5106350;27;46596;-71
2022/12/02 07:01:37;;;;;;;9.52;5.75;;;15.70;52.40;;;;;;5106389;27;45197;-72
2022/12/02 07:04:06;;;;;;;7.18;5.20;;;15.70;52.40;;;;;;5106565;27;45368;-71
2022/12/02 07:06:33;;;;;;;8.25;5.75;;;15.70;52.40;;;;;;5088777;27;45331;-71
2022/12/02 07:09:03;;;;;;;9.05;5.32;;;15.70;52.40;;;;;;5106176;27;45795;-71
2022/12/02 07:14:25;;;;;;;9.45;5.03;;;15.60;52.40;;;;;;5106097;27;45393;-71
2022/12/02 07:16:53;;;;;;;8.45;5.72;;;15.60;52.40;;;;;;5113327;27;45286;-71
2022/12/02 07:19:21;;;;;;;10.55;5.07;;;15.60;52.40;;;;;;5112938;27;45472;-71
2022/12/02 07:21:48;;;;;;;9.82;6.15;;;15.60;52.50;;;;;;5113069;27;45343;-71
2022/12/02 07:24:15;;;;;;;8.15;5.75;;;15.60;52.50;;;;;;5113101;27;45446;-71
2022/12/02 07:26:42;;;;;;;9.07;5.93;;;15.60;52.60;;;;;;5113153;27;45303;-71
2022/12/02 07:29:10;;;;;;;8.27;5.78;;;15.60;52.60;;;;;;5112695;27;45541;-71
2022/12/02 07:31:43;;;;;;;11.77;6.57;;;15.50;52.60;;;;;;5112748;27;45285;-72
2022/12/02 07:34:10;;;;;;;9.40;5.75;;;15.50;52.60;;;;;;5112787;27;45286;-71
2022/12/02 07:36:37;;;;;;;9.10;5.63;;;15.50;52.70;;;;;;5112927;27;45257;-71
2022/12/02 07:39:04;;;;;;;10.10;5.90;;;15.50;52.80;;;;;;5112793;27;46737;-71
2022/12/02 07:41:32;;;;;;;8.70;5.93;;;15.40;52.80;;;;;;5113243;27;45232;-71
2022/12/02 07:43:59;;;;;;;9.77;5.93;;;15.50;52.90;;;;;;5112951;27;45290;-71
2022/12/02 07:46:26;;;;;;;8.98;5.57;;;15.50;52.70;;;;;;5107374;27;45487;-71
2022/12/02 07:48:54;;;;;;;9.13;5.57;;;15.60;52.70;;;;;;5092123;28;48272;-71
2022/12/02 07:51:21;;;;;;;8.35;5.85;;;15.60;52.60;;;;;;5092350;28;45312;-71
2022/12/02 07:53:48;;;;;;;9.57;6.35;;;15.60;52.50;;;;;;5092347;28;45288;-71
2022/12/02 07:56:15;;;;;;;8.68;5.68;;;15.70;52.50;;;;;;5092551;28;45440;-71
2022/12/02 07:58:42;;;;;;;9.27;6.15;;;15.80;52.40;;;;;;5092124;28;46657;-71
2022/12/02 08:01:09;;;;;;;8.55;5.40;;;15.80;52.10;;;;;;5092460;28;45234;-71
2022/12/02 08:03:45;;;;;;;10.95;6.28;;;15.80;52.10;;;;;;5092606;28;45316;-71
2022/12/02 08:06:14;;;;;;;10.23;6.53;;;15.90;52.00;;;;;;5092685;28;45478;-71
2022/12/02 08:08:41;;;;;;;8.70;5.65;;;15.90;51.90;;;;;;5092096;28;45974;-71
2022/12/02 08:11:08;;;;;;;10.85;6.97;;;15.90;51.80;;;;;;5092257;28;45218;-71
2022/12/02 08:13:35;;;;;;;11.52;7.03;;;15.90;51.80;;;;;;5092462;28;45193;-71
2022/12/02 08:16:02;;;;;;;11.25;6.93;;;16.00;51.80;;;;;;5092406;28;45375;-71
2022/12/02 08:18:29;;;;;;;11.45;6.70;;;16.00;51.80;;;;;;5091838;28;46589;-71
2022/12/02 08:20:56;;;;;;;9.63;6.32;;;16.00;51.80;;;;;;5091643;28;45289;-71
2022/12/02 08:23:24;;;;;;;11.85;6.88;;;16.00;51.80;;;;;;5092003;28;45332;-72
2022/12/02 08:25:52;;;;;;;9.77;6.10;;;16.00;51.80;;;;;;5089491;27;45473;-71
2022/12/02 08:28:18;;;;;;;10.88;6.68;;;16.00;51.90;;;;;;5088372;28;47063;-71
2022/12/02 08:30:45;;;;;;;11.38;6.85;;;15.90;51.80;;;;;;5088820;28;45384;-71
2022/12/02 08:33:13;;;;;;;9.07;6.00;;;15.90;52.50;;;;;;5088760;28;45205;-71
2022/12/02 08:35:40;;;;;;;10.32;6.38;;;15.90;52.00;;;;;;5088429;28;45131;-71
2022/12/02 08:38:07;;;;;;;9.52;6.45;;;15.90;52.00;;;;;;5088225;28;46674;-71
2022/12/02 08:40:38;;;;;;;9.80;6.40;;;15.90;52.00;;;;;;5088462;28;45302;-71
2022/12/02 08:43:05;;;;;;;13.43;6.93;;;15.90;52.10;;;;;;5089332;28;45246;-71
2022/12/02 08:45:32;;;;;;;11.27;6.05;;;15.90;52.10;;;;;;5088596;28;45305;-71
2022/12/02 08:47:59;;;;;;;10.63;6.65;;;15.90;52.10;;;;;;5093117;27;45567;-71
2022/12/02 08:50:27;;;;;;;9.30;6.38;;;15.90;52.10;;;;;;5088385;28;45265;-71
2022/12/02 08:52:54;;;;;;;9.77;6.00;;;15.90;52.10;;;;;;5068559;28;45249;-71
2022/12/02 08:55:21;;;;;;;10.20;6.40;;;15.90;52.10;;;;;;5068594;28;45233;-71
2022/12/02 08:57:49;;;;;;;9.73;6.50;;;15.90;52.20;;;;;;5067823;28;46682;-71
2022/12/02 09:00:16;;;;;;;9.13;5.80;;;15.90;52.20;;;;;;5067987;28;45300;-71
2022/12/02 09:02:43;;;;;;;10.07;5.75;;;15.80;52.20;;;;;;5068188;28;45229;-71
2022/12/02 09:05:10;;;;;;;11.65;6.35;;;15.80;52.20;;;;;;5067726;28;45178;-72
2022/12/02 09:07:37;;;;;;;9.38;5.68;;;15.80;52.20;;;;;;5067181;28;45850;-71
2022/12/02 09:10:05;;;;;;;10.45;6.40;;;15.80;52.20;;;;;;5067619;28;45303;-71
2022/12/02 09:12:32;;;;;;;10.10;6.53;;;15.80;52.30;;;;;;5065000;28;45423;-70
2022/12/02 09:15:00;;;;;;;12.00;5.57;;;15.80;52.60;;;;;;5070473;28;45388;-74
2022/12/02 09:17:27;;;;;;;9.38;6.07;;;15.80;52.90;;;;;;5066993;28;45503;-79
2022/12/02 09:19:54;;;;;;;10.00;6.15;;;15.80;52.80;;;;;;5069929;28;45514;-73
2022/12/02 09:22:21;;;;;;;12.07;6.43;;;15.80;52.80;;;;;;5068574;28;45422;-73
2022/12/02 09:24:48;;;;;;;14.00;6.82;;;15.90;52.90;;;;;;5067459;28;45243;-74
2022/12/02 09:27:15;;;;;;;12.43;6.57;;;15.90;52.90;;;;;;5068103;28;46609;-78
2022/12/02 09:29:42;;;;;;;11.77;6.75;;;15.80;52.80;;;;;;5068811;28;45470;-72
2022/12/02 09:32:10;;;;;;;11.05;6.40;;;15.80;52.90;;;;;;5065662;28;45410;-77
2022/12/02 09:34:37;;;;;;;8.57;5.90;;;15.80;53.20;;;;;;5070218;28;45598;-72
2022/12/02 09:37:04;;;;;;;11.05;5.95;;;15.80;53.40;;;;;;5062067;28;46451;-73
2022/12/02 09:39:31;;;;;;;12.43;6.55;;;15.70;53.40;;;;;;5070839;28;45419;-76
2022/12/02 09:41:58;;;;;;;9.68;6.82;;;15.80;53.40;;;;;;5066899;28;45305;-74
2022/12/02 09:44:26;;;;;;;14.23;6.68;;;15.80;53.30;;;;;;5070484;28;45356;-72
2022/12/02 09:46:53;;;;;;;11.75;8.18;;;15.80;53.10;;;;;;5074666;28;45743;-78
2022/12/02 09:49:21;;;;;;;13.98;9.32;;;15.90;53.10;;;;;;5068472;28;45322;-72
2022/12/02 09:51:48;;;;;;;20.25;12.40;;;15.90;53.00;;;;;;5075183;28;45359;-77
2022/12/02 09:54:15;;;;;;;19.38;15.43;;;15.90;53.00;;;;;;5071702;28;45489;-74
2022/12/02 09:56:42;;;;;;;20.50;17.08;;;15.90;53.00;;;;;;5073564;28;45535;-75
2022/12/02 09:59:11;;;;;;;30.92;22.73;;;15.90;53.10;;;;;;5081802;28;45426;-74
2022/12/02 10:01:39;;;;;;;19.10;14.68;;;15.90;53.10;;;;;;5080986;28;45427;-74
2022/12/02 10:04:06;;;;;;;25.52;19.33;;;15.90;52.90;;;;;;5052680;28;45644;-76
2022/12/02 10:06:34;;;;;;;36.60;20.13;;;15.90;53.00;;;;;;5071997;28;46748;-77
2022/12/02 10:09:01;;;;;;;27.50;21.88;;;15.90;53.10;;;;;;5069851;28;45324;-72
2022/12/02 10:11:31;;;;;;;22.35;17.92;;;15.90;53.00;;;;;;5074482;28;45479;-70
2022/12/02 10:13:58;;;;;;;16.48;12.93;;;16.00;53.00;;;;;;5076150;28;45391;-73
2022/12/02 10:16:26;;;;;;;17.88;12.02;;;16.00;53.00;;;;;;5080754;28;46703;-72
2022/12/02 10:18:53;;;;;;;15.20;11.90;;;16.00;52.90;;;;;;5082485;28;45325;-73
2022/12/02 10:21:20;;;;;;;12.18;9.98;;;16.00;53.00;;;;;;5073993;28;45488;-74
2022/12/02 10:23:56;;;;;;;15.65;10.13;;;16.00;52.80;;;;;;5072914;28;45363;-71
2022/12/02 10:26:24;;;;;;;15.90;11.07;;;16.00;52.80;;;;;;5070274;28;45528;-74
2022/12/02 10:29:05;;;;;;;16.58;10.68;;;16.00;52.80;;;;;;5071732;28;45352;-74
2022/12/02 10:31:32;;;;;;;17.95;13.63;;;16.00;52.80;;;;;;5068448;28;45385;-72
2022/12/02 10:34:00;;;;;;;15.98;10.98;;;16.00;52.90;;;;;;5060177;28;45423;-71
2022/12/02 10:36:33;;;;;;;15.63;9.95;;;16.10;52.90;;;;;;5074203;28;45481;-75
2022/12/02 10:39:23;;;;;;;14.98;10.07;;;16.10;52.90;;;;;;5076165;28;45283;-74
2022/12/02 10:41:50;;;;;;;12.88;9.27;;;16.10;52.90;;;;;;5071324;28;45411;-74
2022/12/02 10:44:18;;;;;;;13.73;9.63;;;16.10;52.80;;;;;;5075850;28;45296;-75
2022/12/02 10:46:46;;;;;;;13.90;9.75;;;16.10;52.70;;;;;;5089110;27;45352;-72
2022/12/02 10:49:30;;;;;;;16.15;9.55;;;16.10;52.90;;;;;;5079621;28;45390;-73
2022/12/02 10:51:59;;;;;;;12.13;8.82;;;16.10;53.00;;;;;;5068706;28;45709;-72
2022/12/02 10:54:30;;;;;;;15.82;9.70;;;16.20;52.90;;;;;;5079915;28;45554;-76
2022/12/02 10:56:58;;;;;;;13.88;10.18;;;16.10;53.00;;;;;;5082290;28;46654;-75
2022/12/02 10:59:25;;;;;;;20.17;14.15;;;16.10;52.80;;;;;;5084402;28;45370;-75
2022/12/02 11:01:55;;;;;;;18.25;14.38;;;16.10;52.80;;;;;;5076542;28;45403;-72
2022/12/02 11:04:22;;;;;;;24.75;20.25;;;16.10;52.80;;;;;;5072573;28;45467;-73
2022/12/02 11:06:49;;;;;;;29.05;22.10;;;16.10;52.90;;;;;;5083676;28;46801;-76
2022/12/02 11:09:16;;;;;;;26.23;21.63;;;16.10;53.30;;;;;;5073462;28;45350;-74
2022/12/02 11:11:45;;;;;;;27.45;23.52;;;16.10;53.30;;;;;;5068944;28;45340;-74
2022/12/02 11:14:13;;;;;;;30.42;24.17;;;16.20;53.30;;;;;;5079808;28;45412;-73
2022/12/02 11:17:05;;;;;;;35.72;26.98;;;16.20;53.10;;;;;;5070230;28;47318;-74
2022/12/02 11:19:45;;;;;;;35.60;29.27;;;16.30;53.30;;;;;;5076512;28;45390;-74
2022/12/02 11:23:05;;;;;;;33.70;25.83;;;16.30;53.00;;;;;;5066723;28;45325;-74
2022/12/02 11:25:55;;;;;;;21.48;16.55;;;16.30;53.00;;;;;;5002838;28;45377;-72
2022/12/02 11:29:04;;;;;;;21.83;15.05;;;16.30;52.50;;;;;;5002731;28;45605;-74
2022/12/02 11:31:31;;;;;;;19.60;14.23;;;16.30;52.70;;;;;;5060174;28;45594;-71
2022/12/02 11:34:38;;;;;;;22.58;15.15;;;16.30;52.80;;;;;;5064969;28;45395;-72
2022/12/02 11:37:47;;;;;;;23.33;15.57;;;16.30;53.10;;;;;;5068646;28;45693;-72
2022/12/02 11:40:57;;;;;;;23.90;17.40;;;16.30;52.90;;;;;;5076888;28;46679;-74
2022/12/02 11:44:16;;;;;;;28.65;23.40;;;16.30;52.70;;;;;;5073005;28;45299;-73
2022/12/02 11:46:46;;;;;;;34.55;25.50;;;16.30;52.90;;;;;;5087337;27;45208;-74
2022/12/02 11:49:26;;;;;;;32.30;26.42;;;16.30;53.10;;;;;;5077165;28;45377;-73
2022/12/02 11:51:58;;;;;;;33.08;26.45;;;16.40;52.90;;;;;;5076005;28;46360;-74
2022/12/02 11:54:25;;;;;;;31.63;26.08;;;16.40;52.90;;;;;;5073204;28;45327;-74
2022/12/02 11:56:52;;;;;;;38.97;29.63;;;16.40;52.70;;;;;;5071910;28;45339;-72
2022/12/02 11:59:23;;;;;;;39.30;30.80;;;16.50;52.80;;;;;;5076036;28;45225;-74
2022/12/02 12:01:51;;;;;;;30.95;23.60;;;16.50;52.60;;;;;;5076646;28;46851;-72
2022/12/02 12:04:25;;;;;;;22.08;17.58;;;16.50;52.30;;;;;;5071849;28;45471;-73
2022/12/02 12:06:55;;;;;;;23.13;16.63;;;16.50;52.30;;;;;;5073602;28;45316;-74
2022/12/02 12:09:22;;;;;;;21.55;17.95;;;16.50;52.20;;;;;;5080867;28;45840;-76
2022/12/02 12:12:13;;;;;;;27.17;21.00;;;16.50;52.20;;;;;;5069976;28;45410;-74
2022/12/02 12:14:56;;;;;;;33.08;21.70;;;16.50;52.20;;;;;;5071400;28;45377;-73
2022/12/02 12:17:33;;;;;;;45.17;33.92;;;16.50;52.50;;;;;;5088607;28;45265;-76
2022/12/02 12:20:00;;;;;;;42.97;33.78;;;16.50;52.60;;;;;;5085026;28;45332;-74
2022/12/02 12:22:28;;;;;;;37.17;30.77;;;16.50;52.60;;;;;;5075305;28;46772;-71
2022/12/02 12:24:55;;;;;;;30.52;24.58;;;16.60;52.60;;;;;;5072550;28;45381;-72
2022/12/02 12:27:37;;;;;;;22.83;17.83;;;16.60;52.40;;;;;;5077149;28;45420;-72
2022/12/02 12:30:05;;;;;;;21.63;16.75;;;16.60;52.70;;;;;;5079256;28;45383;-71
2022/12/02 12:32:35;;;;;;;23.58;18.88;;;16.60;52.00;;;;;;5054372;28;45475;-71
2022/12/02 12:35:01;;;;;;;26.00;20.08;;;16.60;52.10;;;;;;5072195;28;45318;-73
2022/12/02 12:37:29;;;;;;;26.25;21.25;;;16.60;52.20;;;;;;5079168;28;45351;-72
2022/12/02 12:39:56;;;;;;;23.15;18.05;;;16.50;52.30;;;;;;5081317;28;45304;-76
2022/12/02 12:42:22;;;;;;;22.92;16.73;;;16.60;52.50;;;;;;5073389;28;45366;-73
2022/12/02 12:44:51;;;;;;;20.63;16.17;;;16.60;52.30;;;;;;5071010;28;45195;-70
2022/12/02 12:47:18;;;;;;;22.73;15.88;;;16.50;52.40;;;;;;5092637;27;45422;-69
2022/12/02 12:49:46;;;;;;;22.02;15.60;;;16.50;52.40;;;;;;5077369;28;45484;-70
2022/12/02 12:52:13;;;;;;;17.38;14.35;;;16.50;52.50;;;;;;5066920;28;45491;-70
2022/12/02 12:54:40;;;;;;;22.05;13.00;;;16.50;52.50;;;;;;5082466;28;45376;-70
2022/12/02 12:57:07;;;;;;;22.67;13.13;;;16.40;51.90;;;;;;5077881;28;45553;-71
2022/12/02 12:59:34;;;;;;;17.35;13.10;;;16.40;51.90;;;;;;5079762;28;45373;-73